sensor_id;sensor_type;location;lat;lon;timestamp;P1;durP1;ratioP1;P2;durP2;ratioP2
59006;SDS011;44792;52.760;6.726;2024-01-27T00:00:08;21.65;;;4.03;;
59006;SDS011;44792;52.760;6.726;2024-01-27T00:02:35;15.88;;;3.75;;
59006;SDS011;44792;52.760;6.726;2024-01-27T00:05:02;19.13;;;3.40;;
59006;SDS011;44792;52.760;6.726;2024-01-27T00:07:28;20.65;;;3.50;;
59006;SDS011;44792;52.760;6.726;2024-01-27T00:09:54;15.63;;;4.95;;
59006;SDS011;44792;52.760;6.726;2024-01-27T00:12:20;23.83;;;6.40;;
59006;SDS011;44792;52.760;6.726;2024-01-27T00:14:46;19.80;;;4.38;;
59006;SDS011;44792;52.760;6.726;2024-01-27T00:17:12;20.23;;;5.10;;
59006;SDS011;44792;52.760;6.726;2024-01-27T00:19:38;30.05;;;4.93;;
59006;SDS011;44792;52.760;6.726;2024-01-27T00:22:03;17.48;;;4.05;;
59006;SDS011;44792;52.760;6.726;2024-01-27T00:24:29;21.92;;;4.63;;
59006;SDS011;44792;52.760;6.726;2024-01-27T00:26:55;18.17;;;3.53;;
59006;SDS011;44792;52.760;6.726;2024-01-27T00:29:21;26.67;;;4.63;;
59006;SDS011;44792;52.760;6.726;2024-01-27T00:31:47;21.83;;;3.83;;
59006;SDS011;44792;52.760;6.726;2024-01-27T00:34:14;18.60;;;3.90;;
59006;SDS011;44792;52.760;6.726;2024-01-27T00:36:40;10.23;;;2.88;;
59006;SDS011;44792;52.760;6.726;2024-01-27T00:39:07;19.10;;;3.47;;
59006;SDS011;44792;52.760;6.726;2024-01-27T00:41:33;24.13;;;3.83;;
59006;SDS011;44792;52.760;6.726;2024-01-27T00:43:59;20.70;;;3.72;;
59006;SDS011;44792;52.760;6.726;2024-01-27T00:46:24;15.35;;;3.25;;
59006;SDS011;44792;52.760;6.726;2024-01-27T00:48:50;24.70;;;3.40;;
59006;SDS011;44792;52.760;6.726;2024-01-27T00:51:16;17.25;;;3.90;;
59006;SDS011;44792;52.760;6.726;2024-01-27T00:53:41;15.27;;;3.30;;
59006;SDS011;44792;52.760;6.726;2024-01-27T00:56:07;27.33;;;5.95;;
59006;SDS011;44792;52.760;6.726;2024-01-27T00:58:33;18.65;;;3.47;;
59006;SDS011;44792;52.760;6.726;2024-01-27T01:00:59;19.95;;;3.67;;
59006;SDS011;44792;52.760;6.726;2024-01-27T01:03:26;22.58;;;3.53;;
59006;SDS011;44792;52.760;6.726;2024-01-27T01:05:52;20.05;;;3.22;;
59006;SDS011;44792;52.760;6.726;2024-01-27T01:08:18;19.17;;;3.75;;
59006;SDS011;44792;52.760;6.726;2024-01-27T01:10:43;16.83;;;3.97;;
59006;SDS011;44792;52.760;6.726;2024-01-27T01:13:09;22.60;;;3.80;;
59006;SDS011;44792;52.760;6.726;2024-01-27T01:15:35;15.35;;;3.30;;
59006;SDS011;44792;52.760;6.726;2024-01-27T01:18:01;18.13;;;3.80;;
59006;SDS011;44792;52.760;6.726;2024-01-27T01:20:27;18.67;;;3.22;;
59006;SDS011;44792;52.760;6.726;2024-01-27T01:22:53;21.27;;;3.50;;
59006;SDS011;44792;52.760;6.726;2024-01-27T01:25:18;20.35;;;3.75;;
59006;SDS011;44792;52.760;6.726;2024-01-27T01:27:47;17.20;;;3.65;;
59006;SDS011;44792;52.760;6.726;2024-01-27T01:30:14;14.48;;;3.83;;
59006;SDS011;44792;52.760;6.726;2024-01-27T01:32:43;14.57;;;3.60;;
59006;SDS011;44792;52.760;6.726;2024-01-27T01:35:12;19.95;;;4.07;;
59006;SDS011;44792;52.760;6.726;2024-01-27T01:37:38;20.17;;;3.58;;
59006;SDS011;44792;52.760;6.726;2024-01-27T01:40:04;18.02;;;3.67;;
59006;SDS011;44792;52.760;6.726;2024-01-27T01:42:31;18.65;;;3.65;;
59006;SDS011;44792;52.760;6.726;2024-01-27T01:44:57;21.25;;;3.85;;
59006;SDS011;44792;52.760;6.726;2024-01-27T01:47:23;11.40;;;4.20;;
59006;SDS011;44792;52.760;6.726;2024-01-27T01:49:49;18.40;;;4.10;;
59006;SDS011;44792;52.760;6.726;2024-01-27T01:52:15;14.68;;;3.90;;
59006;SDS011;44792;52.760;6.726;2024-01-27T01:54:48;14.80;;;4.18;;
59006;SDS011;44792;52.760;6.726;2024-01-27T01:57:16;11.20;;;3.42;;
59006;SDS011;44792;52.760;6.726;2024-01-27T01:59:42;19.20;;;3.63;;
59006;SDS011;44792;52.760;6.726;2024-01-27T02:02:08;15.25;;;3.92;;
59006;SDS011;44792;52.760;6.726;2024-01-27T02:04:44;15.20;;;3.15;;
59006;SDS011;44792;52.760;6.726;2024-01-27T02:07:13;16.67;;;3.35;;
59006;SDS011;44792;52.760;6.726;2024-01-27T02:09:39;19.08;;;4.72;;
59006;SDS011;44792;52.760;6.726;2024-01-27T02:12:05;18.65;;;3.72;;
59006;SDS011;44792;52.760;6.726;2024-01-27T02:14:32;13.18;;;3.75;;
59006;SDS011;44792;52.760;6.726;2024-01-27T02:16:57;17.42;;;4.82;;
59006;SDS011;44792;52.760;6.726;2024-01-27T02:19:23;12.25;;;3.63;;
59006;SDS011;44792;52.760;6.726;2024-01-27T02:21:49;12.98;;;3.72;;
59006;SDS011;44792;52.760;6.726;2024-01-27T02:24:15;24.75;;;4.25;;
59006;SDS011;44792;52.760;6.726;2024-01-27T02:26:41;13.50;;;4.45;;
59006;SDS011;44792;52.760;6.726;2024-01-27T02:29:07;21.05;;;3.28;;
59006;SDS011;44792;52.760;6.726;2024-01-27T02:31:32;15.23;;;3.78;;
59006;SDS011;44792;52.760;6.726;2024-01-27T02:33:58;15.35;;;3.60;;
59006;SDS011;44792;52.760;6.726;2024-01-27T02:36:24;14.73;;;3.60;;
59006;SDS011;44792;52.760;6.726;2024-01-27T02:38:49;12.40;;;3.38;;
59006;SDS011;44792;52.760;6.726;2024-01-27T02:41:15;12.43;;;4.00;;
59006;SDS011;44792;52.760;6.726;2024-01-27T02:43:41;18.35;;;4.43;;
59006;SDS011;44792;52.760;6.726;2024-01-27T02:46:08;17.42;;;3.30;;
59006;SDS011;44792;52.760;6.726;2024-01-27T02:48:41;10.07;;;3.17;;
59006;SDS011;44792;52.760;6.726;2024-01-27T02:51:07;18.67;;;4.57;;
59006;SDS011;44792;52.760;6.726;2024-01-27T02:53:33;15.32;;;3.63;;
59006;SDS011;44792;52.760;6.726;2024-01-27T02:55:59;20.60;;;5.03;;
59006;SDS011;44792;52.760;6.726;2024-01-27T02:58:25;13.00;;;3.50;;
59006;SDS011;44792;52.760;6.726;2024-01-27T03:00:51;11.98;;;3.25;;
59006;SDS011;44792;52.760;6.726;2024-01-27T03:03:17;18.33;;;3.53;;
59006;SDS011;44792;52.760;6.726;2024-01-27T03:05:42;17.77;;;4.30;;
59006;SDS011;44792;52.760;6.726;2024-01-27T03:08:08;16.67;;;3.35;;
59006;SDS011;44792;52.760;6.726;2024-01-27T03:10:34;12.82;;;3.65;;
59006;SDS011;44792;52.760;6.726;2024-01-27T03:13:00;15.07;;;3.53;;
59006;SDS011;44792;52.760;6.726;2024-01-27T03:15:25;15.52;;;3.55;;
59006;SDS011;44792;52.760;6.726;2024-01-27T03:17:51;22.55;;;4.28;;
59006;SDS011;44792;52.760;6.726;2024-01-27T03:20:17;12.60;;;4.13;;
59006;SDS011;44792;52.760;6.726;2024-01-27T03:22:43;20.00;;;4.13;;
59006;SDS011;44792;52.760;6.726;2024-01-27T03:25:09;20.80;;;3.85;;
59006;SDS011;44792;52.760;6.726;2024-01-27T03:27:35;18.42;;;3.30;;
59006;SDS011;44792;52.760;6.726;2024-01-27T03:30:02;13.63;;;3.63;;
59006;SDS011;44792;52.760;6.726;2024-01-27T03:32:29;17.40;;;4.53;;
59006;SDS011;44792;52.760;6.726;2024-01-27T03:34:57;18.02;;;4.00;;
59006;SDS011;44792;52.760;6.726;2024-01-27T03:37:24;21.80;;;4.50;;
59006;SDS011;44792;52.760;6.726;2024-01-27T03:39:49;15.25;;;3.67;;
59006;SDS011;44792;52.760;6.726;2024-01-27T03:42:15;9.90;;;2.85;;
59006;SDS011;44792;52.760;6.726;2024-01-27T03:44:41;12.18;;;3.53;;
59006;SDS011;44792;52.760;6.726;2024-01-27T03:47:06;15.48;;;3.75;;
59006;SDS011;44792;52.760;6.726;2024-01-27T03:49:32;14.57;;;3.35;;
59006;SDS011;44792;52.760;6.726;2024-01-27T03:51:58;18.27;;;3.50;;
59006;SDS011;44792;52.760;6.726;2024-01-27T03:54:23;19.33;;;4.05;;
59006;SDS011;44792;52.760;6.726;2024-01-27T03:56:49;13.23;;;3.38;;
59006;SDS011;44792;52.760;6.726;2024-01-27T03:59:15;15.55;;;3.35;;
59006;SDS011;44792;52.760;6.726;2024-01-27T04:01:40;17.25;;;4.63;;
59006;SDS011;44792;52.760;6.726;2024-01-27T04:04:06;22.45;;;4.00;;
59006;SDS011;44792;52.760;6.726;2024-01-27T04:06:41;13.43;;;3.83;;
59006;SDS011;44792;52.760;6.726;2024-01-27T04:09:07;15.45;;;3.63;;
59006;SDS011;44792;52.760;6.726;2024-01-27T04:11:36;19.42;;;4.97;;
59006;SDS011;44792;52.760;6.726;2024-01-27T04:14:03;18.30;;;3.75;;
59006;SDS011;44792;52.760;6.726;2024-01-27T04:16:30;16.50;;;4.05;;
59006;SDS011;44792;52.760;6.726;2024-01-27T04:18:56;21.77;;;4.00;;
59006;SDS011;44792;52.760;6.726;2024-01-27T04:21:22;17.40;;;3.45;;
59006;SDS011;44792;52.760;6.726;2024-01-27T04:23:47;14.35;;;3.55;;
59006;SDS011;44792;52.760;6.726;2024-01-27T04:26:13;16.42;;;4.00;;
59006;SDS011;44792;52.760;6.726;2024-01-27T04:28:39;12.77;;;2.83;;
59006;SDS011;44792;52.760;6.726;2024-01-27T04:31:05;11.43;;;5.00;;
59006;SDS011;44792;52.760;6.726;2024-01-27T04:33:31;18.70;;;3.72;;
59006;SDS011;44792;52.760;6.726;2024-01-27T04:35:57;10.20;;;4.05;;
59006;SDS011;44792;52.760;6.726;2024-01-27T04:38:22;15.25;;;3.22;;
59006;SDS011;44792;52.760;6.726;2024-01-27T04:40:49;14.23;;;3.70;;
59006;SDS011;44792;52.760;6.726;2024-01-27T04:43:16;20.67;;;4.00;;
59006;SDS011;44792;52.760;6.726;2024-01-27T04:45:42;13.25;;;3.88;;
59006;SDS011;44792;52.760;6.726;2024-01-27T04:48:08;17.80;;;3.53;;
59006;SDS011;44792;52.760;6.726;2024-01-27T04:50:34;16.88;;;3.88;;
59006;SDS011;44792;52.760;6.726;2024-01-27T04:53:00;20.33;;;4.32;;
59006;SDS011;44792;52.760;6.726;2024-01-27T04:55:26;13.63;;;3.80;;
59006;SDS011;44792;52.760;6.726;2024-01-27T04:57:52;16.13;;;4.00;;
59006;SDS011;44792;52.760;6.726;2024-01-27T05:00:18;22.38;;;4.55;;
59006;SDS011;44792;52.760;6.726;2024-01-27T05:02:44;19.13;;;4.05;;
59006;SDS011;44792;52.760;6.726;2024-01-27T05:05:10;11.18;;;3.75;;
59006;SDS011;44792;52.760;6.726;2024-01-27T05:07:37;14.93;;;3.08;;
59006;SDS011;44792;52.760;6.726;2024-01-27T05:10:03;15.07;;;3.90;;
59006;SDS011;44792;52.760;6.726;2024-01-27T05:12:29;16.42;;;3.55;;
59006;SDS011;44792;52.760;6.726;2024-01-27T05:14:55;11.27;;;3.58;;
59006;SDS011;44792;52.760;6.726;2024-01-27T05:17:21;12.70;;;3.53;;
59006;SDS011;44792;52.760;6.726;2024-01-27T05:19:46;13.68;;;4.25;;
59006;SDS011;44792;52.760;6.726;2024-01-27T05:22:12;14.15;;;2.97;;
59006;SDS011;44792;52.760;6.726;2024-01-27T05:24:38;19.92;;;3.70;;
59006;SDS011;44792;52.760;6.726;2024-01-27T05:27:03;12.95;;;3.67;;
59006;SDS011;44792;52.760;6.726;2024-01-27T05:29:29;13.65;;;3.50;;
59006;SDS011;44792;52.760;6.726;2024-01-27T05:31:55;9.93;;;3.08;;
59006;SDS011;44792;52.760;6.726;2024-01-27T05:34:20;17.80;;;4.35;;
59006;SDS011;44792;52.760;6.726;2024-01-27T05:36:49;12.13;;;3.47;;
59006;SDS011;44792;52.760;6.726;2024-01-27T05:39:14;18.75;;;4.43;;
59006;SDS011;44792;52.760;6.726;2024-01-27T05:41:40;15.38;;;3.53;;
59006;SDS011;44792;52.760;6.726;2024-01-27T05:44:06;8.73;;;3.25;;
59006;SDS011;44792;52.760;6.726;2024-01-27T05:46:31;15.10;;;4.07;;
59006;SDS011;44792;52.760;6.726;2024-01-27T05:48:57;20.35;;;3.78;;
59006;SDS011;44792;52.760;6.726;2024-01-27T05:51:27;21.38;;;5.07;;
59006;SDS011;44792;52.760;6.726;2024-01-27T05:53:53;24.63;;;4.30;;
59006;SDS011;44792;52.760;6.726;2024-01-27T05:56:19;20.17;;;4.75;;
59006;SDS011;44792;52.760;6.726;2024-01-27T05:58:47;14.90;;;3.35;;
59006;SDS011;44792;52.760;6.726;2024-01-27T06:01:14;15.93;;;4.30;;
59006;SDS011;44792;52.760;6.726;2024-01-27T06:03:43;9.50;;;3.42;;
59006;SDS011;44792;52.760;6.726;2024-01-27T06:06:08;13.75;;;4.25;;
59006;SDS011;44792;52.760;6.726;2024-01-27T06:08:34;21.55;;;4.05;;
59006;SDS011;44792;52.760;6.726;2024-01-27T06:11:00;13.90;;;3.70;;
59006;SDS011;44792;52.760;6.726;2024-01-27T06:13:26;16.75;;;4.15;;
59006;SDS011;44792;52.760;6.726;2024-01-27T06:15:52;16.05;;;4.00;;
59006;SDS011;44792;52.760;6.726;2024-01-27T06:18:18;15.55;;;4.82;;
59006;SDS011;44792;52.760;6.726;2024-01-27T06:20:43;16.80;;;4.43;;
59006;SDS011;44792;52.760;6.726;2024-01-27T06:23:09;12.52;;;4.40;;
59006;SDS011;44792;52.760;6.726;2024-01-27T06:25:35;10.90;;;3.53;;
59006;SDS011;44792;52.760;6.726;2024-01-27T06:28:04;15.40;;;3.75;;
59006;SDS011;44792;52.760;6.726;2024-01-27T06:30:29;18.83;;;4.07;;
59006;SDS011;44792;52.760;6.726;2024-01-27T06:32:55;24.60;;;6.07;;
59006;SDS011;44792;52.760;6.726;2024-01-27T06:35:21;17.75;;;4.40;;
59006;SDS011;44792;52.760;6.726;2024-01-27T06:37:46;17.17;;;4.30;;
59006;SDS011;44792;52.760;6.726;2024-01-27T06:40:12;14.93;;;4.57;;
59006;SDS011;44792;52.760;6.726;2024-01-27T06:42:38;18.45;;;4.57;;
59006;SDS011;44792;52.760;6.726;2024-01-27T06:45:04;14.30;;;4.25;;
59006;SDS011;44792;52.760;6.726;2024-01-27T06:47:30;18.42;;;4.55;;
59006;SDS011;44792;52.760;6.726;2024-01-27T06:49:56;16.45;;;4.28;;
59006;SDS011;44792;52.760;6.726;2024-01-27T06:52:22;18.17;;;4.40;;
59006;SDS011;44792;52.760;6.726;2024-01-27T06:54:47;17.25;;;5.13;;
59006;SDS011;44792;52.760;6.726;2024-01-27T06:57:19;16.30;;;4.40;;
59006;SDS011;44792;52.760;6.726;2024-01-27T06:59:47;24.08;;;6.60;;
59006;SDS011;44792;52.760;6.726;2024-01-27T07:02:17;20.33;;;6.65;;
59006;SDS011;44792;52.760;6.726;2024-01-27T07:04:52;15.63;;;4.80;;
59006;SDS011;44792;52.760;6.726;2024-01-27T07:07:28;15.70;;;5.75;;
59006;SDS011;44792;52.760;6.726;2024-01-27T07:09:57;19.10;;;6.47;;
59006;SDS011;44792;52.760;6.726;2024-01-27T07:12:23;18.58;;;4.95;;
59006;SDS011;44792;52.760;6.726;2024-01-27T07:14:49;17.70;;;6.63;;
59006;SDS011;44792;52.760;6.726;2024-01-27T07:17:16;18.33;;;5.95;;
59006;SDS011;44792;52.760;6.726;2024-01-27T07:19:42;18.02;;;5.68;;
59006;SDS011;44792;52.760;6.726;2024-01-27T07:22:07;12.30;;;5.57;;
59006;SDS011;44792;52.760;6.726;2024-01-27T07:24:33;16.77;;;5.68;;
59006;SDS011;44792;52.760;6.726;2024-01-27T07:27:02;12.45;;;5.35;;
59006;SDS011;44792;52.760;6.726;2024-01-27T07:29:28;18.60;;;5.57;;
59006;SDS011;44792;52.760;6.726;2024-01-27T07:31:54;14.93;;;7.50;;
59006;SDS011;44792;52.760;6.726;2024-01-27T07:34:20;19.70;;;6.63;;
59006;SDS011;44792;52.760;6.726;2024-01-27T07:36:46;20.42;;;6.13;;
59006;SDS011;44792;52.760;6.726;2024-01-27T07:39:14;16.67;;;6.53;;
59006;SDS011;44792;52.760;6.726;2024-01-27T07:41:40;20.50;;;6.78;;
59006;SDS011;44792;52.760;6.726;2024-01-27T07:44:11;19.05;;;6.20;;
59006;SDS011;44792;52.760;6.726;2024-01-27T07:46:38;18.30;;;6.25;;
59006;SDS011;44792;52.760;6.726;2024-01-27T07:49:05;22.38;;;7.05;;
59006;SDS011;44792;52.760;6.726;2024-01-27T07:51:33;15.77;;;7.05;;
59006;SDS011;44792;52.760;6.726;2024-01-27T07:53:59;21.85;;;6.35;;
59006;SDS011;44792;52.760;6.726;2024-01-27T07:56:26;19.83;;;6.68;;
59006;SDS011;44792;52.760;6.726;2024-01-27T07:58:52;20.85;;;7.72;;
59006;SDS011;44792;52.760;6.726;2024-01-27T08:01:18;23.05;;;6.68;;
59006;SDS011;44792;52.760;6.726;2024-01-27T08:03:44;22.17;;;6.10;;
59006;SDS011;44792;52.760;6.726;2024-01-27T08:06:14;11.35;;;5.85;;
59006;SDS011;44792;52.760;6.726;2024-01-27T08:08:43;18.95;;;6.05;;
59006;SDS011;44792;52.760;6.726;2024-01-27T08:11:13;18.10;;;6.13;;
59006;SDS011;44792;52.760;6.726;2024-01-27T08:13:40;17.55;;;6.22;;
59006;SDS011;44792;52.760;6.726;2024-01-27T08:16:07;16.45;;;6.05;;
59006;SDS011;44792;52.760;6.726;2024-01-27T08:18:35;27.20;;;7.30;;
59006;SDS011;44792;52.760;6.726;2024-01-27T08:21:04;25.08;;;7.15;;
59006;SDS011;44792;52.760;6.726;2024-01-27T08:23:30;20.45;;;6.78;;
59006;SDS011;44792;52.760;6.726;2024-01-27T08:25:56;20.25;;;7.57;;
59006;SDS011;44792;52.760;6.726;2024-01-27T08:28:21;23.73;;;6.72;;
59006;SDS011;44792;52.760;6.726;2024-01-27T08:30:47;14.77;;;6.07;;
59006;SDS011;44792;52.760;6.726;2024-01-27T08:33:13;14.82;;;6.57;;
59006;SDS011;44792;52.760;6.726;2024-01-27T08:35:39;16.83;;;6.40;;
59006;SDS011;44792;52.760;6.726;2024-01-27T08:38:05;21.00;;;7.00;;
59006;SDS011;44792;52.760;6.726;2024-01-27T08:40:32;16.88;;;6.50;;
59006;SDS011;44792;52.760;6.726;2024-01-27T08:42:57;19.70;;;6.70;;
59006;SDS011;44792;52.760;6.726;2024-01-27T08:45:23;21.52;;;7.97;;
59006;SDS011;44792;52.760;6.726;2024-01-27T08:47:50;18.83;;;6.85;;
59006;SDS011;44792;52.760;6.726;2024-01-27T08:50:16;23.02;;;7.50;;
59006;SDS011;44792;52.760;6.726;2024-01-27T08:52:42;19.02;;;8.35;;
59006;SDS011;44792;52.760;6.726;2024-01-27T08:55:07;22.30;;;8.13;;
59006;SDS011;44792;52.760;6.726;2024-01-27T08:57:33;16.02;;;8.30;;
59006;SDS011;44792;52.760;6.726;2024-01-27T08:59:59;23.70;;;8.85;;
59006;SDS011;44792;52.760;6.726;2024-01-27T09:02:25;22.52;;;7.78;;
59006;SDS011;44792;52.760;6.726;2024-01-27T09:04:50;20.10;;;7.55;;
59006;SDS011;44792;52.760;6.726;2024-01-27T09:07:16;27.98;;;8.07;;
59006;SDS011;44792;52.760;6.726;2024-01-27T09:09:42;19.73;;;8.02;;
59006;SDS011;44792;52.760;6.726;2024-01-27T09:12:08;19.10;;;7.93;;
59006;SDS011;44792;52.760;6.726;2024-01-27T09:14:33;18.55;;;7.82;;
59006;SDS011;44792;52.760;6.726;2024-01-27T09:17:02;21.10;;;7.32;;
59006;SDS011;44792;52.760;6.726;2024-01-27T09:19:28;18.90;;;8.75;;
59006;SDS011;44792;52.760;6.726;2024-01-27T09:21:54;20.45;;;9.77;;
59006;SDS011;44792;52.760;6.726;2024-01-27T09:24:19;21.67;;;9.23;;
59006;SDS011;44792;52.760;6.726;2024-01-27T09:26:45;17.15;;;8.35;;
59006;SDS011;44792;52.760;6.726;2024-01-27T09:29:11;17.85;;;9.93;;
59006;SDS011;44792;52.760;6.726;2024-01-27T09:31:37;24.95;;;10.43;;
59006;SDS011;44792;52.760;6.726;2024-01-27T09:34:02;19.33;;;8.38;;
59006;SDS011;44792;52.760;6.726;2024-01-27T09:36:28;21.45;;;9.30;;
59006;SDS011;44792;52.760;6.726;2024-01-27T09:38:54;17.25;;;8.63;;
59006;SDS011;44792;52.760;6.726;2024-01-27T09:41:20;22.85;;;9.57;;
59006;SDS011;44792;52.760;6.726;2024-01-27T09:43:46;27.50;;;9.10;;
59006;SDS011;44792;52.760;6.726;2024-01-27T09:46:15;27.52;;;9.82;;
59006;SDS011;44792;52.760;6.726;2024-01-27T09:48:42;26.52;;;9.63;;
59006;SDS011;44792;52.760;6.726;2024-01-27T09:51:09;24.50;;;9.18;;
59006;SDS011;44792;52.760;6.726;2024-01-27T09:53:36;21.38;;;8.85;;
59006;SDS011;44792;52.760;6.726;2024-01-27T09:56:02;22.40;;;10.07;;
59006;SDS011;44792;52.760;6.726;2024-01-27T09:58:31;24.33;;;9.30;;
59006;SDS011;44792;52.760;6.726;2024-01-27T10:00:57;24.13;;;9.77;;
59006;SDS011;44792;52.760;6.726;2024-01-27T10:03:25;23.90;;;10.05;;
59006;SDS011;44792;52.760;6.726;2024-01-27T10:05:52;18.35;;;9.95;;
59006;SDS011;44792;52.760;6.726;2024-01-27T10:08:20;20.33;;;10.27;;
59006;SDS011;44792;52.760;6.726;2024-01-27T10:10:46;20.38;;;9.60;;
59006;SDS011;44792;52.760;6.726;2024-01-27T10:13:13;21.25;;;10.02;;
59006;SDS011;44792;52.760;6.726;2024-01-27T10:15:42;21.73;;;10.05;;
59006;SDS011;44792;52.760;6.726;2024-01-27T10:18:08;20.65;;;10.10;;
59006;SDS011;44792;52.760;6.726;2024-01-27T10:20:38;21.70;;;10.73;;
59006;SDS011;44792;52.760;6.726;2024-01-27T10:23:11;27.63;;;10.55;;
59006;SDS011;44792;52.760;6.726;2024-01-27T10:28:04;25.88;;;10.35;;
59006;SDS011;44792;52.760;6.726;2024-01-27T10:30:31;18.55;;;10.40;;
59006;SDS011;44792;52.760;6.726;2024-01-27T10:32:57;25.83;;;9.45;;
59006;SDS011;44792;52.760;6.726;2024-01-27T10:35:23;22.05;;;8.80;;
59006;SDS011;44792;52.760;6.726;2024-01-27T10:37:52;20.65;;;9.50;;
59006;SDS011;44792;52.760;6.726;2024-01-27T10:40:18;19.92;;;8.43;;
59006;SDS011;44792;52.760;6.726;2024-01-27T10:42:44;22.27;;;9.35;;
59006;SDS011;44792;52.760;6.726;2024-01-27T10:45:11;16.27;;;7.88;;
59006;SDS011;44792;52.760;6.726;2024-01-27T10:47:38;22.17;;;8.52;;
59006;SDS011;44792;52.760;6.726;2024-01-27T10:50:08;24.75;;;9.07;;
59006;SDS011;44792;52.760;6.726;2024-01-27T10:52:39;16.05;;;7.63;;
59006;SDS011;44792;52.760;6.726;2024-01-27T10:55:07;27.38;;;8.35;;
59006;SDS011;44792;52.760;6.726;2024-01-27T10:57:36;21.45;;;7.95;;
59006;SDS011;44792;52.760;6.726;2024-01-27T11:00:03;24.13;;;7.90;;
59006;SDS011;44792;52.760;6.726;2024-01-27T11:02:32;24.98;;;8.60;;
59006;SDS011;44792;52.760;6.726;2024-01-27T11:05:00;24.98;;;8.50;;
59006;SDS011;44792;52.760;6.726;2024-01-27T11:07:27;19.02;;;7.88;;
59006;SDS011;44792;52.760;6.726;2024-01-27T11:09:54;17.02;;;8.10;;
59006;SDS011;44792;52.760;6.726;2024-01-27T11:12:21;21.98;;;7.18;;
59006;SDS011;44792;52.760;6.726;2024-01-27T11:14:48;16.10;;;6.78;;
59006;SDS011;44792;52.760;6.726;2024-01-27T11:17:16;18.80;;;8.05;;
59006;SDS011;44792;52.760;6.726;2024-01-27T11:19:44;22.88;;;7.55;;
59006;SDS011;44792;52.760;6.726;2024-01-27T11:22:31;24.40;;;8.60;;
59006;SDS011;44792;52.760;6.726;2024-01-27T11:27:34;21.27;;;7.85;;
59006;SDS011;44792;52.760;6.726;2024-01-27T11:30:00;18.65;;;7.03;;
59006;SDS011;44792;52.760;6.726;2024-01-27T11:32:26;18.50;;;6.75;;
59006;SDS011;44792;52.760;6.726;2024-01-27T11:34:52;26.13;;;7.57;;
59006;SDS011;44792;52.760;6.726;2024-01-27T11:37:17;16.08;;;6.40;;
59006;SDS011;44792;52.760;6.726;2024-01-27T11:39:49;20.20;;;6.07;;
59006;SDS011;44792;52.760;6.726;2024-01-27T11:42:16;23.13;;;6.30;;
59006;SDS011;44792;52.760;6.726;2024-01-27T11:44:43;20.02;;;6.68;;
59006;SDS011;44792;52.760;6.726;2024-01-27T11:47:14;23.05;;;5.85;;
59006;SDS011;44792;52.760;6.726;2024-01-27T11:49:41;21.48;;;6.15;;
59006;SDS011;44792;52.760;6.726;2024-01-27T11:52:08;15.98;;;5.97;;
59006;SDS011;44792;52.760;6.726;2024-01-27T11:54:34;14.18;;;5.88;;
59006;SDS011;44792;52.760;6.726;2024-01-27T11:57:01;18.38;;;5.85;;
59006;SDS011;44792;52.760;6.726;2024-01-27T11:59:26;14.80;;;5.63;;
59006;SDS011;44792;52.760;6.726;2024-01-27T12:01:52;21.52;;;6.75;;
59006;SDS011;44792;52.760;6.726;2024-01-27T12:04:18;21.23;;;6.25;;
59006;SDS011;44792;52.760;6.726;2024-01-27T12:06:44;18.02;;;5.43;;
59006;SDS011;44792;52.760;6.726;2024-01-27T12:09:10;18.48;;;5.60;;
59006;SDS011;44792;52.760;6.726;2024-01-27T12:11:40;20.48;;;5.90;;
59006;SDS011;44792;52.760;6.726;2024-01-27T12:14:06;20.90;;;5.45;;
59006;SDS011;44792;52.760;6.726;2024-01-27T12:16:32;18.92;;;5.32;;
59006;SDS011;44792;52.760;6.726;2024-01-27T12:18:58;20.67;;;6.30;;
59006;SDS011;44792;52.760;6.726;2024-01-27T12:21:24;15.45;;;5.28;;
59006;SDS011;44792;52.760;6.726;2024-01-27T12:23:54;21.73;;;6.55;;
59006;SDS011;44792;52.760;6.726;2024-01-27T12:26:21;21.08;;;5.72;;
59006;SDS011;44792;52.760;6.726;2024-01-27T12:28:50;17.75;;;4.85;;
59006;SDS011;44792;52.760;6.726;2024-01-27T12:31:16;15.82;;;5.30;;
59006;SDS011;44792;52.760;6.726;2024-01-27T12:33:49;11.68;;;4.10;;
59006;SDS011;44792;52.760;6.726;2024-01-27T12:36:19;20.42;;;6.07;;
59006;SDS011;44792;52.760;6.726;2024-01-27T12:41:26;15.55;;;4.00;;
59006;SDS011;44792;52.760;6.726;2024-01-27T12:43:52;19.10;;;4.93;;
59006;SDS011;44792;52.760;6.726;2024-01-27T12:46:18;17.60;;;4.50;;
59006;SDS011;44792;52.760;6.726;2024-01-27T12:48:44;12.93;;;4.38;;
59006;SDS011;44792;52.760;6.726;2024-01-27T12:51:11;12.95;;;4.25;;
59006;SDS011;44792;52.760;6.726;2024-01-27T12:53:38;18.92;;;4.22;;
59006;SDS011;44792;52.760;6.726;2024-01-27T12:56:08;17.08;;;4.57;;
59006;SDS011;44792;52.760;6.726;2024-01-27T12:58:34;28.55;;;6.22;;
59006;SDS011;44792;52.760;6.726;2024-01-27T13:01:00;18.73;;;4.03;;
59006;SDS011;44792;52.760;6.726;2024-01-27T13:03:26;15.98;;;3.92;;
59006;SDS011;44792;52.760;6.726;2024-01-27T13:05:51;14.55;;;4.30;;
59006;SDS011;44792;52.760;6.726;2024-01-27T13:08:18;12.13;;;3.97;;
59006;SDS011;44792;52.760;6.726;2024-01-27T13:10:44;14.80;;;4.88;;
59006;SDS011;44792;52.760;6.726;2024-01-27T13:13:10;16.98;;;5.20;;
59006;SDS011;44792;52.760;6.726;2024-01-27T13:15:35;17.05;;;4.53;;
59006;SDS011;44792;52.760;6.726;2024-01-27T13:18:01;16.23;;;4.80;;
59006;SDS011;44792;52.760;6.726;2024-01-27T13:20:27;9.82;;;3.90;;
59006;SDS011;44792;52.760;6.726;2024-01-27T13:22:52;12.80;;;3.70;;
59006;SDS011;44792;52.760;6.726;2024-01-27T13:25:19;12.35;;;3.95;;
59006;SDS011;44792;52.760;6.726;2024-01-27T13:27:45;15.35;;;4.22;;
59006;SDS011;44792;52.760;6.726;2024-01-27T13:30:11;16.27;;;4.38;;
59006;SDS011;44792;52.760;6.726;2024-01-27T13:32:38;27.20;;;6.90;;
59006;SDS011;44792;52.760;6.726;2024-01-27T13:35:03;11.23;;;4.55;;
59006;SDS011;44792;52.760;6.726;2024-01-27T13:37:30;18.45;;;4.10;;
59006;SDS011;44792;52.760;6.726;2024-01-27T13:40:02;13.65;;;3.88;;
59006;SDS011;44792;52.760;6.726;2024-01-27T13:42:29;18.08;;;4.03;;
59006;SDS011;44792;52.760;6.726;2024-01-27T13:44:55;12.57;;;4.40;;
59006;SDS011;44792;52.760;6.726;2024-01-27T13:47:21;20.13;;;4.53;;
59006;SDS011;44792;52.760;6.726;2024-01-27T13:49:47;12.52;;;4.28;;
59006;SDS011;44792;52.760;6.726;2024-01-27T13:52:13;18.38;;;4.78;;
59006;SDS011;44792;52.760;6.726;2024-01-27T13:54:39;13.02;;;3.65;;
59006;SDS011;44792;52.760;6.726;2024-01-27T13:57:05;15.75;;;4.80;;
59006;SDS011;44792;52.760;6.726;2024-01-27T13:59:33;13.18;;;3.80;;
59006;SDS011;44792;52.760;6.726;2024-01-27T14:01:59;11.52;;;4.18;;
59006;SDS011;44792;52.760;6.726;2024-01-27T14:04:24;13.30;;;4.30;;
59006;SDS011;44792;52.760;6.726;2024-01-27T14:06:51;13.00;;;3.70;;
59006;SDS011;44792;52.760;6.726;2024-01-27T14:09:18;13.52;;;4.35;;
59006;SDS011;44792;52.760;6.726;2024-01-27T14:11:50;19.73;;;6.03;;
59006;SDS011;44792;52.760;6.726;2024-01-27T14:14:16;14.98;;;3.88;;
59006;SDS011;44792;52.760;6.726;2024-01-27T14:16:46;14.15;;;3.65;;
59006;SDS011;44792;52.760;6.726;2024-01-27T14:19:12;13.52;;;3.72;;
59006;SDS011;44792;52.760;6.726;2024-01-27T14:21:37;10.48;;;3.72;;
59006;SDS011;44792;52.760;6.726;2024-01-27T14:24:04;12.82;;;4.22;;
59006;SDS011;44792;52.760;6.726;2024-01-27T14:26:31;9.30;;;3.50;;
59006;SDS011;44792;52.760;6.726;2024-01-27T14:28:57;14.45;;;3.50;;
59006;SDS011;44792;52.760;6.726;2024-01-27T14:31:23;12.68;;;3.90;;
59006;SDS011;44792;52.760;6.726;2024-01-27T14:33:49;13.60;;;4.45;;
59006;SDS011;44792;52.760;6.726;2024-01-27T14:36:15;11.50;;;3.50;;